createdAt,value
2022-10-07T00:04:54.459Z,7.40
2022-10-07T00:09:56.005Z,7.04
2022-10-07T00:14:57.758Z,7.16
2022-10-07T00:19:59.275Z,6.92
2022-10-07T00:25:00.799Z,7.08
2022-10-07T00:30:02.366Z,7.26
2022-10-07T00:35:04.213Z,7.10
2022-10-07T00:40:06.120Z,7.05
2022-10-07T00:45:16.689Z,6.88
2022-10-07T00:50:26.578Z,6.67
2022-10-07T00:55:30.068Z,6.63
2022-10-07T01:00:31.875Z,6.83
2022-10-07T01:05:33.454Z,6.98
2022-10-07T01:11:13.942Z,6.69
2022-10-07T01:16:24.663Z,6.60
2022-10-07T01:21:34.422Z,6.45
2022-10-07T01:26:45.333Z,6.47
2022-10-07T01:31:59.191Z,6.37
2022-10-07T01:37:04.652Z,6.30
2022-10-07T01:42:06.498Z,6.64
2022-10-07T01:47:08.175Z,6.12
2022-10-07T01:52:43.236Z,6.10
2022-10-07T01:58:11.422Z,6.16
2022-10-07T02:03:59.983Z,6.35
2022-10-07T02:09:11.619Z,6.19
2022-10-07T02:14:25.013Z,6.33
2022-10-07T02:19:32.336Z,5.91
2022-10-07T02:24:35.563Z,5.89
2022-10-07T02:29:42.894Z,5.80
2022-10-07T02:34:48.936Z,5.74
2022-10-07T02:39:51.999Z,5.90
2022-10-07T02:45:06.286Z,5.92
2022-10-07T02:50:12.870Z,5.66
2022-10-07T02:55:22.394Z,5.67
2022-10-07T03:00:24.611Z,5.84
2022-10-07T03:05:28.499Z,5.86
2022-10-07T03:10:34.977Z,5.78
2022-10-07T03:15:42.118Z,5.72
2022-10-07T03:20:45.463Z,5.44
2022-10-07T03:25:55.076Z,5.36
2022-10-07T03:31:06.980Z,5.60
2022-10-07T03:36:10.213Z,5.34
2022-10-07T03:41:15.309Z,5.38
2022-10-07T03:46:19.546Z,5.37
2022-10-07T03:51:22.028Z,5.36
2022-10-07T03:56:24.901Z,5.58
2022-10-07T04:01:26.730Z,5.56
2022-10-07T04:06:32.395Z,5.49
2022-10-07T04:11:40.549Z,5.32
2022-10-07T04:16:43.082Z,5.24
2022-10-07T04:21:47.150Z,5.20
2022-10-07T04:26:50.322Z,5.48
2022-10-07T04:31:52.191Z,5.37
2022-10-07T04:36:54.472Z,5.31
2022-10-07T04:41:56.955Z,5.65
2022-10-07T04:47:05.514Z,5.49
2022-10-07T04:52:07.949Z,5.37
2022-10-07T04:57:15.802Z,5.29
2022-10-07T05:02:19.493Z,5.16
2022-10-07T05:07:21.743Z,5.19
2022-10-07T05:12:25.961Z,5.37
2022-10-07T05:17:28.473Z,5.41
2022-10-07T05:22:31.448Z,5.45
2022-10-07T05:27:33.681Z,5.56
2022-10-07T05:32:35.303Z,5.55
2022-10-07T05:37:38.077Z,5.60
2022-10-07T05:42:40.058Z,5.52
2022-10-07T05:47:43.151Z,5.66
2022-10-07T05:52:45.504Z,5.91
2022-10-07T05:57:49.433Z,6.26
2022-10-07T06:02:51.965Z,6.27
2022-10-07T06:07:53.650Z,6.46
2022-10-07T06:13:07.469Z,6.73
2022-10-07T06:18:10.364Z,6.93
2022-10-07T06:23:13.250Z,7.29
2022-10-07T06:28:17.714Z,7.64
2022-10-07T06:33:20.317Z,7.72
2022-10-07T06:38:24.047Z,7.92
2022-10-07T06:43:27.024Z,8.07
2022-10-07T06:48:41.394Z,8.20
2022-10-07T06:53:44.302Z,8.45
2022-10-07T06:58:46.845Z,8.59
2022-10-07T07:03:51.529Z,8.74
2022-10-07T07:08:55.944Z,8.96
2022-10-07T07:13:58.522Z,9.10
2022-10-07T07:19:04.095Z,9.24
2022-10-07T07:24:07.677Z,9.37
2022-10-07T07:29:12.172Z,9.78
2022-10-07T07:34:19.524Z,9.87
2022-10-07T07:39:21.935Z,10.08
2022-10-07T07:44:43.657Z,10.19
2022-10-07T07:49:50.356Z,10.50
2022-10-07T07:54:59.165Z,10.61
2022-10-07T08:00:01.756Z,10.93
2022-10-07T08:05:04.915Z,11.22
2022-10-07T08:10:07.095Z,11.40
2022-10-07T08:15:10.827Z,11.47
2022-10-07T08:20:14.912Z,11.69
2022-10-07T08:25:16.843Z,11.81
2022-10-07T08:30:19.567Z,12.09
2022-10-07T08:35:22.521Z,12.18
2022-10-07T08:40:24.042Z,11.83
2022-10-07T08:45:31.937Z,12.05
2022-10-07T08:51:05.119Z,12.60
2022-10-07T08:56:13.997Z,12.59
2022-10-07T09:01:34.285Z,13.22
2022-10-07T09:06:45.520Z,13.40
2022-10-07T09:11:49.604Z,13.94
2022-10-07T09:16:55.032Z,14.21
2022-10-07T09:22:03.484Z,14.70
2022-10-07T09:27:13.625Z,15.12
2022-10-07T09:32:18.748Z,15.20
2022-10-07T09:37:26.183Z,15.61
2022-10-07T09:42:33.626Z,16.32
2022-10-07T09:47:40.295Z,16.62
2022-10-07T09:52:54.664Z,16.91
2022-10-07T09:58:01.591Z,17.45
2022-10-07T10:03:07.759Z,17.97
2022-10-07T10:08:18.221Z,18.46
2022-10-07T10:13:36.599Z,19.13
2022-10-07T10:18:40.657Z,19.43
2022-10-07T10:23:53.770Z,19.11
2022-10-07T10:29:22.914Z,19.22
2022-10-07T10:34:54.143Z,19.57
2022-10-07T10:40:29.574Z,19.99
2022-10-07T10:45:49.103Z,20.68
2022-10-07T10:51:14.534Z,20.74
2022-10-07T10:56:42.474Z,20.24
2022-10-07T11:01:46.372Z,20.23
2022-10-07T11:06:58.548Z,20.29
2022-10-07T11:12:05.230Z,20.29
2022-10-07T11:17:10.167Z,20.71
2022-10-07T11:22:31.103Z,20.55
2022-10-07T11:27:35.041Z,20.47
2022-10-07T11:33:05.310Z,20.82
2022-10-07T11:38:15.778Z,20.85
2022-10-07T11:43:26.307Z,21.00
2022-10-07T11:48:40.981Z,20.91
2022-10-07T11:53:44.448Z,21.45
2022-10-07T11:58:48.776Z,20.91
2022-10-07T12:03:51.340Z,20.50
2022-10-07T12:08:53.809Z,20.46
2022-10-07T12:14:15.615Z,20.36
2022-10-07T12:19:23.466Z,19.92
2022-10-07T12:24:27.162Z,19.94
2022-10-07T12:29:44.580Z,19.55
2022-10-07T12:34:47.397Z,19.53
2022-10-07T12:39:49.033Z,19.54
2022-10-07T12:44:52.885Z,19.35
2022-10-07T12:50:07.327Z,19.22
2022-10-07T12:55:16.284Z,19.05
2022-10-07T13:00:24.515Z,19.07
2022-10-07T13:06:00.321Z,19.15
2022-10-07T13:11:42.189Z,19.06
2022-10-07T13:17:10.453Z,18.93
2022-10-07T13:22:19.448Z,18.90
2022-10-07T13:27:26.835Z,18.94
2022-10-07T13:32:35.596Z,18.79
2022-10-07T13:37:38.298Z,18.76
2022-10-07T13:42:39.904Z,19.00
2022-10-07T13:47:45.134Z,18.82
2022-10-07T13:52:49.850Z,18.92
2022-10-07T13:57:52.499Z,18.93
2022-10-07T14:02:54.542Z,18.79
2022-10-07T14:08:10.999Z,18.66
2022-10-07T14:13:15.355Z,18.39
2022-10-07T14:18:17.771Z,18.27
2022-10-07T14:23:28.382Z,18.16
2022-10-07T14:28:35.370Z,17.93
2022-10-07T14:34:13.962Z,17.86
2022-10-07T14:39:29.684Z,18.05
2022-10-07T14:44:31.856Z,17.88
2022-10-07T14:49:33.400Z,17.78
2022-10-07T14:54:35.175Z,17.69
2022-10-07T14:59:37.896Z,17.46
2022-10-07T15:04:40.369Z,17.29
2022-10-07T15:09:43.814Z,17.14
2022-10-07T15:14:45.422Z,17.09
2022-10-07T15:19:47.089Z,17.04
2022-10-07T15:24:48.920Z,16.83
2022-10-07T15:29:53.770Z,16.86
2022-10-07T15:34:55.610Z,16.85
2022-10-07T15:39:58.733Z,16.66
2022-10-07T15:45:00.466Z,16.60
2022-10-07T15:50:02.272Z,16.62
2022-10-07T15:55:07.805Z,16.63
2022-10-07T16:00:10.752Z,16.64
2022-10-07T16:05:15.054Z,16.50
2022-10-07T16:10:16.726Z,16.39
2022-10-07T16:15:18.285Z,16.33
2022-10-07T16:20:20.597Z,16.11
2022-10-07T16:25:22.133Z,15.96
2022-10-07T16:30:42.148Z,15.97
2022-10-07T16:35:43.759Z,15.80
2022-10-07T16:40:54.671Z,15.72
2022-10-07T16:46:02.055Z,15.56
2022-10-07T16:51:04.154Z,15.48
2022-10-07T16:56:06.408Z,15.47
2022-10-07T17:01:13.695Z,15.39
2022-10-07T17:06:17.994Z,15.41
2022-10-07T17:11:31.255Z,15.27
2022-10-07T17:16:38.495Z,15.27
2022-10-07T17:21:41.990Z,15.22
2022-10-07T17:26:44.703Z,15.26
2022-10-07T17:31:50.487Z,15.42
2022-10-07T17:36:52.679Z,15.29
2022-10-07T17:41:54.374Z,15.07
2022-10-07T17:46:58.923Z,14.99
2022-10-07T17:52:00.552Z,14.99
2022-10-07T17:57:02.757Z,14.87
2022-10-07T18:02:05.343Z,14.67
2022-10-07T18:07:06.880Z,14.74
2022-10-07T18:12:27.079Z,14.97
2022-10-07T18:17:28.610Z,14.55
2022-10-07T18:22:30.138Z,14.39
2022-10-07T18:27:31.755Z,14.12
2022-10-07T18:32:33.645Z,13.90
2022-10-07T18:37:36.117Z,14.03
2022-10-07T18:42:38.455Z,13.82
2022-10-07T18:47:39.988Z,13.59
2022-10-07T18:52:41.630Z,13.38
2022-10-07T18:57:43.420Z,13.10
2022-10-07T19:02:46.130Z,12.79
2022-10-07T19:07:48.596Z,12.66
2022-10-07T19:13:09.324Z,13.03
2022-10-07T19:18:11.076Z,13.03
2022-10-07T19:23:12.732Z,12.69
2022-10-07T19:28:14.489Z,12.41
2022-10-07T19:33:16.750Z,12.33
2022-10-07T19:38:18.459Z,12.28
2022-10-07T19:43:20.012Z,12.17
2022-10-07T19:48:22.147Z,12.07
2022-10-07T19:53:23.684Z,11.94
2022-10-07T19:58:27.037Z,11.82
2022-10-07T20:03:28.657Z,11.85
2022-10-07T20:08:32.451Z,11.73
2022-10-07T20:13:35.820Z,11.62
2022-10-07T20:18:38.687Z,11.63
2022-10-07T20:23:45.753Z,11.60
2022-10-07T20:28:50.047Z,11.62
2022-10-07T20:33:54.543Z,11.67
2022-10-07T20:39:18.366Z,11.67
2022-10-07T20:44:22.977Z,11.71
2022-10-07T20:49:28.419Z,11.55
2022-10-07T20:54:31.270Z,11.52
2022-10-07T20:59:33.413Z,11.40
2022-10-07T21:04:34.918Z,11.61
2022-10-07T21:09:36.698Z,11.75
2022-10-07T21:14:38.414Z,11.88
2022-10-07T21:19:40.205Z,11.66
2022-10-07T21:24:41.846Z,11.57
2022-10-07T21:29:47.966Z,11.43
2022-10-07T21:34:51.274Z,11.25
2022-10-07T21:39:52.784Z,11.39
2022-10-07T21:44:54.330Z,11.50
2022-10-07T21:49:56.872Z,11.25
2022-10-07T21:54:58.424Z,11.19
2022-10-07T21:59:59.919Z,11.06
2022-10-07T22:05:01.497Z,10.91
2022-10-07T22:10:03.311Z,10.91
2022-10-07T22:15:05.317Z,10.89
2022-10-07T22:20:08.272Z,10.66
2022-10-07T22:25:09.796Z,10.89
2022-10-07T22:30:11.834Z,10.73
2022-10-07T22:35:30.141Z,10.76
2022-10-07T22:40:31.685Z,10.76
2022-10-07T22:45:33.829Z,10.77
2022-10-07T22:50:36.191Z,10.65
2022-10-07T22:55:37.683Z,10.57
2022-10-07T23:00:39.200Z,10.34
2022-10-07T23:05:40.770Z,10.43
2022-10-07T23:10:42.931Z,10.56
2022-10-07T23:15:46.685Z,10.46
2022-10-07T23:20:48.736Z,10.52
2022-10-07T23:25:51.812Z,10.51
2022-10-07T23:30:53.462Z,10.24
2022-10-07T23:35:57.099Z,10.44
2022-10-07T23:40:59.202Z,10.41
2022-10-07T23:46:01.687Z,10.26
2022-10-07T23:51:04.630Z,10.13
2022-10-07T23:56:06.921Z,10.14
